sensor_id;sensor_type;location;lat;lon;timestamp;pressure;altitude;pressure_sealevel;temperature;humidity
71996;BME280;59862;47.732;7.346;2023-02-28T00:01:14;98500.45;;;-0.43;52.82
71996;BME280;59862;47.732;7.346;2023-02-28T00:03:42;98507.27;;;-0.46;53.05
71996;BME280;59862;47.732;7.346;2023-02-28T00:06:10;98508.59;;;-0.46;53.34
71996;BME280;59862;47.732;7.346;2023-02-28T00:08:38;98503.94;;;-0.42;53.32
71996;BME280;59862;47.732;7.346;2023-02-28T00:11:08;98505.09;;;-0.46;53.36
71996;BME280;59862;47.732;7.346;2023-02-28T00:13:38;98505.26;;;-0.42;53.32
71996;BME280;59862;47.732;7.346;2023-02-28T00:16:11;98509.33;;;-0.44;53.61
71996;BME280;59862;47.732;7.346;2023-02-28T00:18:39;98505.15;;;-0.41;53.18
71996;BME280;59862;47.732;7.346;2023-02-28T00:21:08;98506.88;;;-0.47;53.65
71996;BME280;59862;47.732;7.346;2023-02-28T00:23:35;98503.19;;;-0.57;53.48
71996;BME280;59862;47.732;7.346;2023-02-28T00:26:03;98506.34;;;-0.52;53.70
71996;BME280;59862;47.732;7.346;2023-02-28T00:28:31;98505.79;;;-0.50;53.78
71996;BME280;59862;47.732;7.346;2023-02-28T00:30:58;98505.70;;;-0.55;53.94
71996;BME280;59862;47.732;7.346;2023-02-28T00:33:27;98496.76;;;-0.53;54.13
71996;BME280;59862;47.732;7.346;2023-02-28T00:36:06;98509.77;;;-0.57;53.76
71996;BME280;59862;47.732;7.346;2023-02-28T00:38:34;98509.39;;;-0.58;54.20
71996;BME280;59862;47.732;7.346;2023-02-28T00:41:02;98505.84;;;-0.64;54.20
71996;BME280;59862;47.732;7.346;2023-02-28T00:43:33;98506.23;;;-0.63;54.39
71996;BME280;59862;47.732;7.346;2023-02-28T00:46:02;98506.40;;;-0.59;54.33
71996;BME280;59862;47.732;7.346;2023-02-28T00:48:29;98508.45;;;-0.57;54.45
71996;BME280;59862;47.732;7.346;2023-02-28T00:50:57;98507.14;;;-0.57;54.38
71996;BME280;59862;47.732;7.346;2023-02-28T00:53:24;98504.72;;;-0.67;54.58
71996;BME280;59862;47.732;7.346;2023-02-28T00:55:52;98509.36;;;-0.70;54.53
71996;BME280;59862;47.732;7.346;2023-02-28T00:58:20;98510.98;;;-0.75;54.49
71996;BME280;59862;47.732;7.346;2023-02-28T01:00:47;98510.80;;;-0.72;54.46
71996;BME280;59862;47.732;7.346;2023-02-28T01:03:19;98508.92;;;-0.77;54.50
71996;BME280;59862;47.732;7.346;2023-02-28T01:05:48;98505.52;;;-0.72;54.73
71996;BME280;59862;47.732;7.346;2023-02-28T01:08:16;98507.98;;;-0.76;54.77
71996;BME280;59862;47.732;7.346;2023-02-28T01:10:43;98509.09;;;-0.73;54.73
71996;BME280;59862;47.732;7.346;2023-02-28T01:13:12;98509.47;;;-0.72;54.59
71996;BME280;59862;47.732;7.346;2023-02-28T01:15:50;98507.03;;;-0.75;54.49
71996;BME280;59862;47.732;7.346;2023-02-28T01:18:13;98511.39;;;-0.81;54.47
71996;BME280;59862;47.732;7.346;2023-02-28T01:20:40;98510.07;;;-0.81;54.49
71996;BME280;59862;47.732;7.346;2023-02-28T01:23:07;98510.98;;;-0.75;54.63
71996;BME280;59862;47.732;7.346;2023-02-28T01:25:36;98506.28;;;-0.77;54.83
71996;BME280;59862;47.732;7.346;2023-02-28T01:28:04;98503.05;;;-0.88;54.67
71996;BME280;59862;47.732;7.346;2023-02-28T01:30:33;98502.73;;;-1.03;55.25
71996;BME280;59862;47.732;7.346;2023-02-28T01:33:00;98505.31;;;-1.15;55.66
71996;BME280;59862;47.732;7.346;2023-02-28T01:35:28;98502.69;;;-1.22;55.67
71996;BME280;59862;47.732;7.346;2023-02-28T01:37:55;98502.23;;;-1.29;56.04
71996;BME280;59862;47.732;7.346;2023-02-28T01:40:23;98503.28;;;-1.38;56.21
71996;BME280;59862;47.732;7.346;2023-02-28T01:42:50;98504.98;;;-1.37;56.15
71996;BME280;59862;47.732;7.346;2023-02-28T01:45:26;98506.87;;;-1.46;56.33
71996;BME280;59862;47.732;7.346;2023-02-28T01:48:02;98503.85;;;-1.40;56.68
71996;BME280;59862;47.732;7.346;2023-02-28T01:50:34;98501.04;;;-1.37;56.72
71996;BME280;59862;47.732;7.346;2023-02-28T01:53:04;98498.63;;;-1.47;56.91
71996;BME280;59862;47.732;7.346;2023-02-28T01:55:32;98496.06;;;-1.42;57.03
71996;BME280;59862;47.732;7.346;2023-02-28T01:58:02;98492.30;;;-1.45;57.40
71996;BME280;59862;47.732;7.346;2023-02-28T02:00:30;98491.66;;;-1.48;57.44
71996;BME280;59862;47.732;7.346;2023-02-28T02:03:10;98495.15;;;-1.55;57.86
71996;BME280;59862;47.732;7.346;2023-02-28T02:05:30;98488.33;;;-1.65;58.00
71996;BME280;59862;47.732;7.346;2023-02-28T02:08:08;98492.45;;;-1.68;58.61
71996;BME280;59862;47.732;7.346;2023-02-28T02:19:07;98496.86;;;-1.75;59.43
71996;BME280;59862;47.732;7.346;2023-02-28T02:21:46;98492.73;;;-1.72;59.41
71996;BME280;59862;47.732;7.346;2023-02-28T02:24:33;98494.80;;;-1.77;59.51
71996;BME280;59862;47.732;7.346;2023-02-28T02:27:13;98488.14;;;-1.83;59.70
71996;BME280;59862;47.732;7.346;2023-02-28T02:35:52;98489.66;;;-1.93;60.22
71996;BME280;59862;47.732;7.346;2023-02-28T02:41:46;98487.78;;;-1.91;60.12
71996;BME280;59862;47.732;7.346;2023-02-28T02:43:48;98485.80;;;-1.87;59.98
71996;BME280;59862;47.732;7.346;2023-02-28T02:46:30;98484.20;;;-1.90;60.15
71996;BME280;59862;47.732;7.346;2023-02-28T02:49:00;98492.66;;;-1.85;59.92
71996;BME280;59862;47.732;7.346;2023-02-28T02:51:30;98486.08;;;-1.85;59.95
71996;BME280;59862;47.732;7.346;2023-02-28T02:54:14;98491.91;;;-1.87;60.01
71996;BME280;59862;47.732;7.346;2023-02-28T02:56:44;98484.84;;;-1.86;59.89
71996;BME280;59862;47.732;7.346;2023-02-28T02:59:16;98488.71;;;-1.85;59.96
71996;BME280;59862;47.732;7.346;2023-02-28T03:01:45;98487.01;;;-1.79;59.98
71996;BME280;59862;47.732;7.346;2023-02-28T03:04:16;98487.19;;;-1.75;59.97
71996;BME280;59862;47.732;7.346;2023-02-28T03:06:43;98485.23;;;-1.78;60.24
71996;BME280;59862;47.732;7.346;2023-02-28T03:09:10;98482.67;;;-1.80;59.84
71996;BME280;59862;47.732;7.346;2023-02-28T03:11:38;98482.67;;;-1.80;59.98
71996;BME280;59862;47.732;7.346;2023-02-28T03:22:44;98487.94;;;-1.66;59.91
71996;BME280;59862;47.732;7.346;2023-02-28T03:25:27;98493.98;;;-1.78;59.94
71996;BME280;59862;47.732;7.346;2023-02-28T03:30:55;98486.34;;;-1.68;59.97
71996;BME280;59862;47.732;7.346;2023-02-28T03:33:24;98486.44;;;-1.70;60.33
71996;BME280;59862;47.732;7.346;2023-02-28T03:35:59;98490.75;;;-1.69;60.19
71996;BME280;59862;47.732;7.346;2023-02-28T03:38:29;98488.78;;;-1.65;60.16
71996;BME280;59862;47.732;7.346;2023-02-28T03:41:13;98496.22;;;-1.72;60.46
71996;BME280;59862;47.732;7.346;2023-02-28T03:43:45;98492.80;;;-1.67;60.39
71996;BME280;59862;47.732;7.346;2023-02-28T03:46:14;98484.84;;;-1.72;60.65
71996;BME280;59862;47.732;7.346;2023-02-28T03:48:45;98479.66;;;-1.67;60.70
71996;BME280;59862;47.732;7.346;2023-02-28T03:51:15;98486.23;;;-1.67;60.69
71996;BME280;59862;47.732;7.346;2023-02-28T03:53:46;98487.01;;;-1.79;61.16
71996;BME280;59862;47.732;7.346;2023-02-28T03:56:19;98490.39;;;-1.77;61.49
71996;BME280;59862;47.732;7.346;2023-02-28T03:59:06;98495.93;;;-1.74;61.62
71996;BME280;59862;47.732;7.346;2023-02-28T04:01:35;98491.70;;;-1.77;61.63
71996;BME280;59862;47.732;7.346;2023-02-28T04:04:03;98493.58;;;-1.86;61.97
71996;BME280;59862;47.732;7.346;2023-02-28T04:06:33;98493.30;;;-1.88;61.93
71996;BME280;59862;47.732;7.346;2023-02-28T04:09:02;98488.14;;;-1.83;62.01
71996;BME280;59862;47.732;7.346;2023-02-28T04:11:40;98493.41;;;-1.76;62.04
71996;BME280;59862;47.732;7.346;2023-02-28T04:14:10;98497.25;;;-1.74;61.95
71996;BME280;59862;47.732;7.346;2023-02-28T04:16:40;98503.08;;;-1.76;61.98
71996;BME280;59862;47.732;7.346;2023-02-28T04:19:09;98503.26;;;-1.72;62.22
71996;BME280;59862;47.732;7.346;2023-02-28T04:21:51;98505.60;;;-1.68;61.93
71996;BME280;59862;47.732;7.346;2023-02-28T04:24:19;98504.11;;;-1.72;61.68
71996;BME280;59862;47.732;7.346;2023-02-28T04:26:50;98508.34;;;-1.69;62.06
71996;BME280;59862;47.732;7.346;2023-02-28T04:29:23;98505.60;;;-1.68;62.14
71996;BME280;59862;47.732;7.346;2023-02-28T04:31:52;98508.80;;;-1.63;62.11
71996;BME280;59862;47.732;7.346;2023-02-28T04:34:24;98504.36;;;-1.62;61.94
71996;BME280;59862;47.732;7.346;2023-02-28T04:36:54;98512.00;;;-1.65;62.05
71996;BME280;59862;47.732;7.346;2023-02-28T04:39:23;98506.45;;;-1.67;62.15
71996;BME280;59862;47.732;7.346;2023-02-28T04:41:51;98515.55;;;-1.59;62.24
71996;BME280;59862;47.732;7.346;2023-02-28T04:44:18;98507.66;;;-1.59;61.95
71996;BME280;59862;47.732;7.346;2023-02-28T04:46:48;98507.09;;;-1.57;62.11
71996;BME280;59862;47.732;7.346;2023-02-28T04:49:16;98510.69;;;-1.65;62.13
71996;BME280;59862;47.732;7.346;2023-02-28T04:51:43;98508.98;;;-1.66;62.38
71996;BME280;59862;47.732;7.346;2023-02-28T04:54:11;98512.18;;;-1.61;62.40
71996;BME280;59862;47.732;7.346;2023-02-28T04:56:39;98517.80;;;-1.52;62.36
71996;BME280;59862;47.732;7.346;2023-02-28T04:59:07;98517.80;;;-1.52;62.17
71996;BME280;59862;47.732;7.346;2023-02-28T05:01:35;98520.14;;;-1.62;62.51
71996;BME280;59862;47.732;7.346;2023-02-28T05:04:04;98523.27;;;-1.70;62.93
71996;BME280;59862;47.732;7.346;2023-02-28T05:06:33;98519.50;;;-1.59;62.79
71996;BME280;59862;47.732;7.346;2023-02-28T05:09:01;98521.39;;;-1.68;62.91
71996;BME280;59862;47.732;7.346;2023-02-28T05:11:32;98527.40;;;-1.59;63.02
71996;BME280;59862;47.732;7.346;2023-02-28T05:14:06;98523.91;;;-1.52;62.93
71996;BME280;59862;47.732;7.346;2023-02-28T05:16:33;98522.31;;;-1.62;63.32
71996;BME280;59862;47.732;7.346;2023-02-28T05:19:01;98526.08;;;-1.59;63.55
71996;BME280;59862;47.732;7.346;2023-02-28T05:21:52;98527.97;;;-1.61;63.94
71996;BME280;59862;47.732;7.346;2023-02-28T05:24:11;98520.07;;;-1.61;64.26
71996;BME280;59862;47.732;7.346;2023-02-28T05:26:41;98522.88;;;-1.57;64.25
71996;BME280;59862;47.732;7.346;2023-02-28T05:29:09;98525.33;;;-1.61;64.84
71996;BME280;59862;47.732;7.346;2023-02-28T05:31:37;98532.27;;;-1.67;64.96
71996;BME280;59862;47.732;7.346;2023-02-28T05:34:05;98526.93;;;-1.65;65.60
71996;BME280;59862;47.732;7.346;2023-02-28T05:36:32;98531.34;;;-1.66;65.82
71996;BME280;59862;47.732;7.346;2023-02-28T05:39:00;98524.19;;;-1.71;65.97
71996;BME280;59862;47.732;7.346;2023-02-28T05:41:29;98533.05;;;-1.72;66.29
71996;BME280;59862;47.732;7.346;2023-02-28T05:43:58;98535.09;;;-1.84;66.77
71996;BME280;59862;47.732;7.346;2023-02-28T05:46:26;98534.52;;;-1.82;66.92
71996;BME280;59862;47.732;7.346;2023-02-28T05:48:54;98530.51;;;-1.80;67.44
71996;BME280;59862;47.732;7.346;2023-02-28T05:51:23;98528.14;;;-1.71;67.88
71996;BME280;59862;47.732;7.346;2023-02-28T05:53:50;98526.45;;;-1.86;68.35
71996;BME280;59862;47.732;7.346;2023-02-28T05:56:18;98528.91;;;-2.04;69.08
71996;BME280;59862;47.732;7.346;2023-02-28T05:58:45;98539.59;;;-2.07;69.91
71996;BME280;59862;47.732;7.346;2023-02-28T06:01:42;98540.20;;;-2.32;71.12
71996;BME280;59862;47.732;7.346;2023-02-28T06:03:55;98538.06;;;-2.32;72.11
71996;BME280;59862;47.732;7.346;2023-02-28T06:06:22;98543.52;;;-2.28;72.84
71996;BME280;59862;47.732;7.346;2023-02-28T06:08:50;98538.89;;;-2.32;73.44
71996;BME280;59862;47.732;7.346;2023-02-28T06:11:17;98541.33;;;-2.36;74.29
71996;BME280;59862;47.732;7.346;2023-02-28T06:13:47;98536.17;;;-2.37;74.87
71996;BME280;59862;47.732;7.346;2023-02-28T06:16:14;98546.88;;;-2.33;75.34
71996;BME280;59862;47.732;7.346;2023-02-28T06:18:42;98545.36;;;-2.37;75.54
71996;BME280;59862;47.732;7.346;2023-02-28T06:21:09;98546.30;;;-2.45;76.14
71996;BME280;59862;47.732;7.346;2023-02-28T06:23:37;98551.06;;;-2.52;76.57
71996;BME280;59862;47.732;7.346;2023-02-28T06:26:04;98554.70;;;-2.54;77.05
71996;BME280;59862;47.732;7.346;2023-02-28T06:28:32;98559.56;;;-2.55;77.43
71996;BME280;59862;47.732;7.346;2023-02-28T06:30:59;98559.20;;;-2.56;77.84
71996;BME280;59862;47.732;7.346;2023-02-28T06:33:27;98563.50;;;-2.55;78.08
71996;BME280;59862;47.732;7.346;2023-02-28T06:35:54;98560.25;;;-2.45;78.09
71996;BME280;59862;47.732;7.346;2023-02-28T06:38:21;98562.45;;;-2.37;77.79
71996;BME280;59862;47.732;7.346;2023-02-28T06:40:57;98562.95;;;-2.53;77.72
71996;BME280;59862;47.732;7.346;2023-02-28T06:43:26;98563.70;;;-2.58;78.25
71996;BME280;59862;47.732;7.346;2023-02-28T06:45:59;98569.77;;;-2.65;78.50
71996;BME280;59862;47.732;7.346;2023-02-28T06:48:28;98572.47;;;-2.66;78.92
71996;BME280;59862;47.732;7.346;2023-02-28T06:51:12;98573.02;;;-2.68;79.44
71996;BME280;59862;47.732;7.346;2023-02-28T06:53:35;98576.30;;;-2.72;79.91
71996;BME280;59862;47.732;7.346;2023-02-28T06:56:08;98570.59;;;-2.71;80.57
71996;BME280;59862;47.732;7.346;2023-02-28T06:58:35;98571.94;;;-2.64;80.78
71996;BME280;59862;47.732;7.346;2023-02-28T07:01:05;98581.27;;;-2.52;81.02
71996;BME280;59862;47.732;7.346;2023-02-28T07:03:32;98579.03;;;-2.44;80.93
71996;BME280;59862;47.732;7.346;2023-02-28T07:06:00;98579.12;;;-2.45;81.10
71996;BME280;59862;47.732;7.346;2023-02-28T07:08:28;98576.57;;;-2.47;81.34
71996;BME280;59862;47.732;7.346;2023-02-28T07:10:56;98578.64;;;-2.45;81.39
71996;BME280;59862;47.732;7.346;2023-02-28T07:13:24;98585.34;;;-2.39;81.31
71996;BME280;59862;47.732;7.346;2023-02-28T07:16:03;98584.68;;;-2.36;81.25
71996;BME280;59862;47.732;7.346;2023-02-28T07:18:32;98590.95;;;-2.38;80.79
71996;BME280;59862;47.732;7.346;2023-02-28T07:21:02;98593.88;;;-2.43;80.74
71996;BME280;59862;47.732;7.346;2023-02-28T07:23:29;98591.74;;;-2.36;80.87
71996;BME280;59862;47.732;7.346;2023-02-28T07:25:57;98594.92;;;-2.31;80.74
71996;BME280;59862;47.732;7.346;2023-02-28T07:28:25;98600.86;;;-2.20;80.80
71996;BME280;59862;47.732;7.346;2023-02-28T07:30:52;98600.06;;;-2.07;80.83
71996;BME280;59862;47.732;7.346;2023-02-28T07:33:20;98602.42;;;-2.02;80.22
71996;BME280;59862;47.732;7.346;2023-02-28T07:35:47;98594.14;;;-2.03;80.12
71996;BME280;59862;47.732;7.346;2023-02-28T07:38:15;98601.56;;;-2.03;79.71
71996;BME280;59862;47.732;7.346;2023-02-28T07:40:43;98607.61;;;-1.87;79.39
71996;BME280;59862;47.732;7.346;2023-02-28T07:43:10;98609.87;;;-1.67;79.14
71996;BME280;59862;47.732;7.346;2023-02-28T07:45:38;98610.84;;;-1.61;78.61
71996;BME280;59862;47.732;7.346;2023-02-28T07:48:05;98612.91;;;-1.59;78.19
71996;BME280;59862;47.732;7.346;2023-02-28T07:50:33;98610.47;;;-1.47;78.11
71996;BME280;59862;47.732;7.346;2023-02-28T07:53:01;98616.38;;;-1.44;78.06
71996;BME280;59862;47.732;7.346;2023-02-28T07:55:28;98618.15;;;-1.44;78.49
71996;BME280;59862;47.732;7.346;2023-02-28T07:57:57;98617.59;;;-1.64;78.31
71996;BME280;59862;47.732;7.346;2023-02-28T08:00:25;98615.34;;;-1.70;78.21
71996;BME280;59862;47.732;7.346;2023-02-28T08:02:53;98619.36;;;-1.64;78.00
71996;BME280;59862;47.732;7.346;2023-02-28T08:05:20;98618.90;;;-1.42;78.09
71996;BME280;59862;47.732;7.346;2023-02-28T08:07:49;98614.39;;;-1.26;77.99
71996;BME280;59862;47.732;7.346;2023-02-28T08:10:17;98614.95;;;-1.42;77.48
71996;BME280;59862;47.732;7.346;2023-02-28T08:12:44;98617.02;;;-1.40;77.39
71996;BME280;59862;47.732;7.346;2023-02-28T08:15:12;98616.30;;;-1.49;77.47
71996;BME280;59862;47.732;7.346;2023-02-28T08:17:39;98616.94;;;-1.67;77.62
71996;BME280;59862;47.732;7.346;2023-02-28T08:20:08;98620.61;;;-1.63;77.37
71996;BME280;59862;47.732;7.346;2023-02-28T08:22:36;98617.98;;;-1.41;77.36
71996;BME280;59862;47.732;7.346;2023-02-28T08:25:04;98621.80;;;-1.19;77.14
71996;BME280;59862;47.732;7.346;2023-02-28T08:27:33;98620.30;;;-1.30;76.62
71996;BME280;59862;47.732;7.346;2023-02-28T08:30:01;98624.54;;;-1.13;76.66
71996;BME280;59862;47.732;7.346;2023-02-28T08:32:29;98622.19;;;-1.11;76.28
71996;BME280;59862;47.732;7.346;2023-02-28T08:34:57;98623.58;;;-0.98;76.00
71996;BME280;59862;47.732;7.346;2023-02-28T08:37:24;98621.52;;;-1.00;75.04
71996;BME280;59862;47.732;7.346;2023-02-28T08:39:52;98617.73;;;-0.89;75.16
71996;BME280;59862;47.732;7.346;2023-02-28T08:42:19;98624.42;;;-0.64;75.47
71996;BME280;59862;47.732;7.346;2023-02-28T08:44:47;98622.13;;;-0.56;74.98
71996;BME280;59862;47.732;7.346;2023-02-28T08:47:14;98623.62;;;-0.52;74.11
71996;BME280;59862;47.732;7.346;2023-02-28T08:49:42;98625.88;;;-0.46;73.83
71996;BME280;59862;47.732;7.346;2023-02-28T08:52:09;98622.17;;;-0.43;73.51
71996;BME280;59862;47.732;7.346;2023-02-28T08:54:36;98621.87;;;-0.39;73.67
71996;BME280;59862;47.732;7.346;2023-02-28T08:57:04;98624.90;;;-0.38;73.46
71996;BME280;59862;47.732;7.346;2023-02-28T08:59:31;98626.63;;;-0.44;72.99
71996;BME280;59862;47.732;7.346;2023-02-28T09:01:59;98631.20;;;-0.40;73.12
71996;BME280;59862;47.732;7.346;2023-02-28T09:04:26;98632.78;;;-0.31;73.07
71996;BME280;59862;47.732;7.346;2023-02-28T09:06:55;98629.34;;;-0.06;73.22
71996;BME280;59862;47.732;7.346;2023-02-28T09:09:23;98638.80;;;-0.09;71.93
71996;BME280;59862;47.732;7.346;2023-02-28T09:11:50;98629.11;;;-0.28;72.12
71996;BME280;59862;47.732;7.346;2023-02-28T09:14:18;98643.33;;;-0.31;73.09
71996;BME280;59862;47.732;7.346;2023-02-28T09:16:45;98637.95;;;-0.29;72.97
71996;BME280;59862;47.732;7.346;2023-02-28T09:19:13;98640.38;;;-0.46;73.11
71996;BME280;59862;47.732;7.346;2023-02-28T09:21:41;98640.73;;;-0.45;73.80
71996;BME280;59862;47.732;7.346;2023-02-28T09:24:09;98641.54;;;-0.57;74.40
71996;BME280;59862;47.732;7.346;2023-02-28T09:26:38;98642.77;;;-0.62;74.77
71996;BME280;59862;47.732;7.346;2023-02-28T09:29:06;98642.72;;;-0.82;75.27
71996;BME280;59862;47.732;7.346;2023-02-28T09:31:33;98640.30;;;-0.85;75.81
71996;BME280;59862;47.732;7.346;2023-02-28T09:34:01;98648.73;;;-0.80;75.82
71996;BME280;59862;47.732;7.346;2023-02-28T09:36:28;98649.30;;;-0.82;75.67
71996;BME280;59862;47.732;7.346;2023-02-28T09:38:56;98652.05;;;-0.91;76.03
71996;BME280;59862;47.732;7.346;2023-02-28T09:41:25;98650.66;;;-1.03;76.34
71996;BME280;59862;47.732;7.346;2023-02-28T09:43:59;98651.05;;;-1.02;76.20
71996;BME280;59862;47.732;7.346;2023-02-28T09:46:32;98643.11;;;-0.88;76.44
71996;BME280;59862;47.732;7.346;2023-02-28T09:49:07;98642.70;;;-0.75;76.24
71996;BME280;59862;47.732;7.346;2023-02-28T09:54:06;98650.73;;;-0.91;76.51
71996;BME280;59862;47.732;7.346;2023-02-28T09:56:40;98652.36;;;-1.02;76.79
71996;BME280;59862;47.732;7.346;2023-02-28T09:59:39;98648.48;;;-0.90;76.58
71996;BME280;59862;47.732;7.346;2023-02-28T10:02:41;98651.11;;;-0.83;75.85
71996;BME280;59862;47.732;7.346;2023-02-28T10:04:43;98651.47;;;-0.82;76.05
71996;BME280;59862;47.732;7.346;2023-02-28T10:07:35;98650.95;;;-0.67;76.27
71996;BME280;59862;47.732;7.346;2023-02-28T10:09:53;98663.39;;;-0.69;75.90
71996;BME280;59862;47.732;7.346;2023-02-28T10:12:21;98657.18;;;-0.61;75.37
71996;BME280;59862;47.732;7.346;2023-02-28T10:14:51;98659.19;;;-0.45;75.48
71996;BME280;59862;47.732;7.346;2023-02-28T10:17:25;98658.02;;;-0.34;75.22
71996;BME280;59862;47.732;7.346;2023-02-28T10:20:11;98657.78;;;-0.24;75.18
71996;BME280;59862;47.732;7.346;2023-02-28T10:22:50;98664.38;;;-0.24;74.89
71996;BME280;59862;47.732;7.346;2023-02-28T10:25:22;98666.97;;;-0.36;74.53
71996;BME280;59862;47.732;7.346;2023-02-28T10:27:52;98665.30;;;-0.37;74.89
71996;BME280;59862;47.732;7.346;2023-02-28T10:30:20;98669.92;;;-0.21;75.21
71996;BME280;59862;47.732;7.346;2023-02-28T10:32:52;98666.63;;;-0.18;74.37
71996;BME280;59862;47.732;7.346;2023-02-28T10:35:25;98663.72;;;-0.20;74.14
71996;BME280;59862;47.732;7.346;2023-02-28T10:37:57;98665.70;;;-0.04;73.84
71996;BME280;59862;47.732;7.346;2023-02-28T10:40:29;98662.70;;;0.15;73.68
71996;BME280;59862;47.732;7.346;2023-02-28T10:43:04;98666.87;;;0.05;73.71
71996;BME280;59862;47.732;7.346;2023-02-28T10:45:34;98658.45;;;-0.01;73.38
71996;BME280;59862;47.732;7.346;2023-02-28T10:48:26;98660.86;;;0.03;73.35
71996;BME280;59862;47.732;7.346;2023-02-28T11:01:21;98656.44;;;0.48;71.64
71996;BME280;59862;47.732;7.346;2023-02-28T11:03:51;98651.11;;;0.67;70.60
71996;BME280;59862;47.732;7.346;2023-02-28T11:06:30;98653.97;;;0.77;69.90
71996;BME280;59862;47.732;7.346;2023-02-28T11:11:30;98664.11;;;0.70;68.86
71996;BME280;59862;47.732;7.346;2023-02-28T11:14:04;98657.14;;;0.82;69.83
71996;BME280;59862;47.732;7.346;2023-02-28T11:16:35;98663.75;;;0.82;69.62
71996;BME280;59862;47.732;7.346;2023-02-28T11:19:06;98663.56;;;0.78;69.99
71996;BME280;59862;47.732;7.346;2023-02-28T11:21:36;98666.38;;;0.69;69.27
71996;BME280;59862;47.732;7.346;2023-02-28T11:24:23;98663.09;;;0.78;70.11
71996;BME280;59862;47.732;7.346;2023-02-28T11:26:49;98664.97;;;0.71;68.93
71996;BME280;59862;47.732;7.346;2023-02-28T11:29:22;98659.45;;;0.74;69.08
71996;BME280;59862;47.732;7.346;2023-02-28T11:32:16;98661.58;;;0.82;70.04
71996;BME280;59862;47.732;7.346;2023-02-28T11:34:43;98669.13;;;0.93;69.36
71996;BME280;59862;47.732;7.346;2023-02-28T11:37:14;98659.63;;;0.91;68.09
71996;BME280;59862;47.732;7.346;2023-02-28T11:39:42;98653.78;;;0.98;67.90
71996;BME280;59862;47.732;7.346;2023-02-28T11:53:20;98647.05;;;1.30;66.40
71996;BME280;59862;47.732;7.346;2023-02-28T11:58:44;98641.43;;;1.35;66.58
71996;BME280;59862;47.732;7.346;2023-02-28T12:01:28;98648.25;;;1.50;66.79
71996;BME280;59862;47.732;7.346;2023-02-28T12:06:40;98643.00;;;1.32;64.51
71996;BME280;59862;47.732;7.346;2023-02-28T12:20:15;98635.70;;;1.65;65.03
71996;BME280;59862;47.732;7.346;2023-02-28T12:28:11;98639.13;;;1.72;64.17
71996;BME280;59862;47.732;7.346;2023-02-28T12:33:42;98634.08;;;2.04;64.41
71996;BME280;59862;47.732;7.346;2023-02-28T12:36:10;98637.55;;;1.70;63.87
71996;BME280;59862;47.732;7.346;2023-02-28T12:38:44;98630.92;;;1.64;64.17
71996;BME280;59862;47.732;7.346;2023-02-28T12:41:22;98631.98;;;1.62;64.72
71996;BME280;59862;47.732;7.346;2023-02-28T12:44:00;98623.79;;;1.59;63.96
71996;BME280;59862;47.732;7.346;2023-02-28T12:46:47;98625.05;;;1.72;64.46
71996;BME280;59862;47.732;7.346;2023-02-28T12:48:58;98619.73;;;1.90;63.95
71996;BME280;59862;47.732;7.346;2023-02-28T12:51:27;98622.88;;;1.95;63.43
71996;BME280;59862;47.732;7.346;2023-02-28T12:56:54;98627.99;;;1.80;62.93
71996;BME280;59862;47.732;7.346;2023-02-28T12:59:57;98623.66;;;1.84;63.12
71996;BME280;59862;47.732;7.346;2023-02-28T13:05:25;98616.88;;;2.04;63.06
71996;BME280;59862;47.732;7.346;2023-02-28T13:10:02;98612.84;;;2.22;62.59
71996;BME280;59862;47.732;7.346;2023-02-28T13:12:29;98615.94;;;2.10;63.14
71996;BME280;59862;47.732;7.346;2023-02-28T13:15:07;98611.02;;;2.11;62.05
71996;BME280;59862;47.732;7.346;2023-02-28T13:17:30;98613.92;;;2.14;61.50
71996;BME280;59862;47.732;7.346;2023-02-28T13:20:00;98619.84;;;2.23;61.75
71996;BME280;59862;47.732;7.346;2023-02-28T13:22:45;98613.98;;;2.42;61.94
71996;BME280;59862;47.732;7.346;2023-02-28T13:28:13;98616.50;;;2.43;61.36
71996;BME280;59862;47.732;7.346;2023-02-28T13:33:34;98612.16;;;2.31;59.69
71996;BME280;59862;47.732;7.346;2023-02-28T13:38:54;98619.91;;;2.67;60.83
71996;BME280;59862;47.732;7.346;2023-02-28T13:46:33;98621.09;;;2.52;59.80
71996;BME280;59862;47.732;7.346;2023-02-28T13:49:24;98623.03;;;2.61;59.77
71996;BME280;59862;47.732;7.346;2023-02-28T13:51:57;98622.54;;;2.56;60.29
71996;BME280;59862;47.732;7.346;2023-02-28T14:03:11;98627.59;;;2.48;58.94
71996;BME280;59862;47.732;7.346;2023-02-28T14:05:37;98622.17;;;2.50;60.71
71996;BME280;59862;47.732;7.346;2023-02-28T14:08:21;98627.59;;;2.54;60.13
71996;BME280;59862;47.732;7.346;2023-02-28T14:10:47;98622.87;;;2.41;59.19
71996;BME280;59862;47.732;7.346;2023-02-28T14:16:13;98636.70;;;2.33;60.09
71996;BME280;59862;47.732;7.346;2023-02-28T14:18:55;98636.58;;;2.35;60.37
71996;BME280;59862;47.732;7.346;2023-02-28T14:21:33;98640.93;;;2.36;59.93
71996;BME280;59862;47.732;7.346;2023-02-28T14:24:30;98634.44;;;2.40;60.09
71996;BME280;59862;47.732;7.346;2023-02-28T14:36:03;98632.02;;;2.31;60.05
71996;BME280;59862;47.732;7.346;2023-02-28T14:38:55;98636.33;;;2.26;59.97
71996;BME280;59862;47.732;7.346;2023-02-28T14:41:30;98637.94;;;2.40;60.42
71996;BME280;59862;47.732;7.346;2023-02-28T14:44:01;98638.22;;;2.19;60.06
71996;BME280;59862;47.732;7.346;2023-02-28T14:46:40;98641.47;;;2.17;59.87
71996;BME280;59862;47.732;7.346;2023-02-28T14:49:15;98637.74;;;2.14;60.18
71996;BME280;59862;47.732;7.346;2023-02-28T14:51:42;98641.41;;;2.29;60.36
71996;BME280;59862;47.732;7.346;2023-02-28T14:54:13;98646.58;;;2.37;60.04
71996;BME280;59862;47.732;7.346;2023-02-28T14:56:40;98639.28;;;2.11;60.17
71996;BME280;59862;47.732;7.346;2023-02-28T14:59:25;98643.85;;;2.09;60.29
71996;BME280;59862;47.732;7.346;2023-02-28T15:02:13;98646.88;;;2.15;60.42
71996;BME280;59862;47.732;7.346;2023-02-28T15:04:26;98648.80;;;2.19;61.45
71996;BME280;59862;47.732;7.346;2023-02-28T15:07:14;98650.64;;;2.24;60.71
71996;BME280;59862;47.732;7.346;2023-02-28T15:09:42;98653.20;;;2.02;60.09
71996;BME280;59862;47.732;7.346;2023-02-28T15:12:13;98652.01;;;2.06;60.66
71996;BME280;59862;47.732;7.346;2023-02-28T15:14:42;98656.70;;;2.02;61.65
71996;BME280;59862;47.732;7.346;2023-02-28T15:17:14;98651.58;;;2.12;61.18
71996;BME280;59862;47.732;7.346;2023-02-28T15:19:42;98652.25;;;2.03;60.57
71996;BME280;59862;47.732;7.346;2023-02-28T15:22:16;98649.05;;;1.87;61.04
71996;BME280;59862;47.732;7.346;2023-02-28T15:24:46;98647.24;;;1.82;60.74